Rechercher aéroport 
image banner adimage banner ad
image banner ad

FYWB - Walvis Bay

Situé à Walvis Bay, Namibia

ICAO - FYWB, IATA - WVB

Données fournies par Airmate  

Information générale

Coordonnées: S22°58'48" E14°38'43"
Élévation : 299 feet MSL.
 
Voir autres Aéroports à Erongo

Données opérationnelles

Accessible au public
Heure actuelle UTC:
Heure actuelle locale:
Météo
METAR: FYWB 280800Z AUTO 02008KT //// // ////// 21/16 Q1013
TAF: TAF FYWB 280400Z 2806/2906 04009KT CAVOK PROB30 TEMPO 2806/2807 1000 BR OVC008 BECMG 2809/2811 30006KT 9999 BKN015
Voir NOTAMs / SUP AIP / TFR affectant cet aéroport [VIEW]
Fréquences de communication: [VIEW]

Pistes:

Identifiant RWYQFULongueur (ft)Largeur (ft)SurfaceLDA (ft)
0972°11286197ASP
27252°11286197

Coordonnées de l'aéroport

Adresse: Walvis Bay Namibia

Vue satellite de FYWB